sensor_id;sensor_type;location;lat;lon;timestamp;pressure;altitude;pressure_sealevel;temperature;humidity
9899;BME280;4988;49.238;6.698;2022-10-17T00:02:13;99478.09;;;13.39;100.00
9899;BME280;4988;49.238;6.698;2022-10-17T00:04:38;99477.16;;;13.40;100.00
9899;BME280;4988;49.238;6.698;2022-10-17T00:07:03;99470.13;;;13.38;100.00
9899;BME280;4988;49.238;6.698;2022-10-17T00:09:29;99477.16;;;13.40;100.00
9899;BME280;4988;49.238;6.698;2022-10-17T00:11:54;99474.72;;;13.34;100.00
9899;BME280;4988;49.238;6.698;2022-10-17T00:14:19;99469.31;;;13.35;100.00
9899;BME280;4988;49.238;6.698;2022-10-17T00:16:45;99469.31;;;13.35;100.00
9899;BME280;4988;49.238;6.698;2022-10-17T00:19:10;99469.38;;;13.34;100.00
9899;BME280;4988;49.238;6.698;2022-10-17T00:21:35;99475.25;;;13.42;100.00
9899;BME280;4988;49.238;6.698;2022-10-17T00:24:01;99470.91;;;13.40;100.00
9899;BME280;4988;49.238;6.698;2022-10-17T00:26:26;99478.16;;;13.38;100.00
9899;BME280;4988;49.238;6.698;2022-10-17T00:28:53;99476.56;;;13.33;100.00
9899;BME280;4988;49.238;6.698;2022-10-17T00:31:20;99479.63;;;13.26;100.00
9899;BME280;4988;49.238;6.698;2022-10-17T00:33:46;99482.13;;;13.29;100.00
9899;BME280;4988;49.238;6.698;2022-10-17T00:36:14;99482.06;;;13.30;100.00
9899;BME280;4988;49.238;6.698;2022-10-17T00:38:42;99486.72;;;13.27;100.00
9899;BME280;4988;49.238;6.698;2022-10-17T00:41:10;99483.97;;;13.28;100.00
9899;BME280;4988;49.238;6.698;2022-10-17T00:44:02;99496.63;;;13.25;100.00
9899;BME280;4988;49.238;6.698;2022-10-17T00:46:30;99495.81;;;13.23;100.00
9899;BME280;4988;49.238;6.698;2022-10-17T00:48:57;99496.69;;;13.23;100.00
9899;BME280;4988;49.238;6.698;2022-10-17T00:51:31;99484.50;;;13.17;100.00
9899;BME280;4988;49.238;6.698;2022-10-17T00:53:58;99497.06;;;13.15;100.00
9899;BME280;4988;49.238;6.698;2022-10-17T00:56:25;99494.56;;;13.12;100.00
9899;BME280;4988;49.238;6.698;2022-10-17T00:58:51;99492.84;;;13.11;100.00
9899;BME280;4988;49.238;6.698;2022-10-17T01:01:16;99490.97;;;13.13;100.00
9899;BME280;4988;49.238;6.698;2022-10-17T01:03:41;99496.94;;;13.18;100.00
9899;BME280;4988;49.238;6.698;2022-10-17T01:06:07;99494.97;;;13.22;100.00
9899;BME280;4988;49.238;6.698;2022-10-17T01:08:32;99503.13;;;13.19;100.00
9899;BME280;4988;49.238;6.698;2022-10-17T01:11:38;99498.44;;;13.24;100.00
9899;BME280;4988;49.238;6.698;2022-10-17T01:14:27;99497.03;;;13.17;100.00
9899;BME280;4988;49.238;6.698;2022-10-17T01:22:23;99503.94;;;13.03;100.00
9899;BME280;4988;49.238;6.698;2022-10-17T01:33:11;99494.56;;;12.95;100.00
9899;BME280;4988;49.238;6.698;2022-10-17T01:38:12;99488.25;;;12.96;100.00
9899;BME280;4988;49.238;6.698;2022-10-17T01:40:47;99498.09;;;12.95;100.00
9899;BME280;4988;49.238;6.698;2022-10-17T01:43:25;99493.78;;;12.93;100.00
9899;BME280;4988;49.238;6.698;2022-10-17T01:46:15;99488.44;;;12.93;100.00
9899;BME280;4988;49.238;6.698;2022-10-17T01:48:44;99491.00;;;12.94;100.00
9899;BME280;4988;49.238;6.698;2022-10-17T01:51:15;99483.72;;;12.98;100.00
9899;BME280;4988;49.238;6.698;2022-10-17T01:53:49;99497.06;;;12.98;100.00
9899;BME280;4988;49.238;6.698;2022-10-17T01:56:17;99494.56;;;12.95;100.00
9899;BME280;4988;49.238;6.698;2022-10-17T01:58:48;99484.59;;;12.98;100.00
9899;BME280;4988;49.238;6.698;2022-10-17T02:01:16;99487.09;;;13.01;100.00
9899;BME280;4988;49.238;6.698;2022-10-17T02:03:44;99490.69;;;13.00;100.00
9899;BME280;4988;49.238;6.698;2022-10-17T02:06:10;99484.97;;;12.91;100.00
9899;BME280;4988;49.238;6.698;2022-10-17T02:08:41;99483.00;;;12.94;100.00
9899;BME280;4988;49.238;6.698;2022-10-17T02:21:57;99480.72;;;12.86;100.00
9899;BME280;4988;49.238;6.698;2022-10-17T02:24:32;99482.47;;;12.87;100.00
9899;BME280;4988;49.238;6.698;2022-10-17T02:27:10;99485.97;;;12.88;100.00
9899;BME280;4988;49.238;6.698;2022-10-17T02:29:45;99491.50;;;12.85;100.00
9899;BME280;4988;49.238;6.698;2022-10-17T02:32:18;99493.06;;;12.89;100.00
9899;BME280;4988;49.238;6.698;2022-10-17T02:34:48;99490.38;;;12.89;100.00
9899;BME280;4988;49.238;6.698;2022-10-17T02:37:19;99495.94;;;12.84;100.00
9899;BME280;4988;49.238;6.698;2022-10-17T02:39:47;99491.63;;;12.82;100.00
9899;BME280;4988;49.238;6.698;2022-10-17T02:42:15;99499.72;;;12.80;100.00
9899;BME280;4988;49.238;6.698;2022-10-17T02:44:43;99496.13;;;12.81;100.00
9899;BME280;4988;49.238;6.698;2022-10-17T02:47:26;99490.16;;;12.76;100.00
9899;BME280;4988;49.238;6.698;2022-10-17T02:49:56;99488.00;;;12.65;100.00
9899;BME280;4988;49.238;6.698;2022-10-17T02:52:36;99482.88;;;12.61;100.00
9899;BME280;4988;49.238;6.698;2022-10-17T02:55:24;99477.44;;;12.62;100.00
9899;BME280;4988;49.238;6.698;2022-10-17T02:57:58;99478.25;;;12.64;100.00
9899;BME280;4988;49.238;6.698;2022-10-17T03:00:24;99474.44;;;12.70;100.00
9899;BME280;4988;49.238;6.698;2022-10-17T03:02:52;99471.44;;;12.76;100.00
9899;BME280;4988;49.238;6.698;2022-10-17T03:05:24;99466.09;;;12.76;100.00
9899;BME280;4988;49.238;6.698;2022-10-17T03:07:51;99473.53;;;12.69;100.00
9899;BME280;4988;49.238;6.698;2022-10-17T03:10:17;99478.09;;;12.67;100.00
9899;BME280;4988;49.238;6.698;2022-10-17T03:12:42;99478.56;;;12.58;100.00
9899;BME280;4988;49.238;6.698;2022-10-17T03:15:08;99486.34;;;12.63;100.00
9899;BME280;4988;49.238;6.698;2022-10-17T03:17:34;99481.00;;;12.63;100.00
9899;BME280;4988;49.238;6.698;2022-10-17T03:20:00;99483.91;;;12.58;100.00
9899;BME280;4988;49.238;6.698;2022-10-17T03:22:25;99490.97;;;12.59;100.00
9899;BME280;4988;49.238;6.698;2022-10-17T03:24:51;99487.38;;;12.60;100.00
9899;BME280;4988;49.238;6.698;2022-10-17T03:27:16;99491.81;;;12.60;100.00
9899;BME280;4988;49.238;6.698;2022-10-17T03:29:42;99495.59;;;12.55;100.00
9899;BME280;4988;49.238;6.698;2022-10-17T03:32:07;99493.06;;;12.52;100.00
9899;BME280;4988;49.238;6.698;2022-10-17T03:34:32;99503.00;;;12.49;100.00
9899;BME280;4988;49.238;6.698;2022-10-17T03:36:58;99506.41;;;12.52;100.00
9899;BME280;4988;49.238;6.698;2022-10-17T03:39:23;99509.47;;;12.45;100.00
9899;BME280;4988;49.238;6.698;2022-10-17T03:41:49;99517.25;;;12.49;100.00
9899;BME280;4988;49.238;6.698;2022-10-17T03:44:14;99511.19;;;12.46;100.00
9899;BME280;4988;49.238;6.698;2022-10-17T03:46:39;99517.38;;;12.46;100.00
9899;BME280;4988;49.238;6.698;2022-10-17T03:49:05;99522.72;;;12.46;100.00
9899;BME280;4988;49.238;6.698;2022-10-17T03:51:32;99523.81;;;12.42;100.00
9899;BME280;4988;49.238;6.698;2022-10-17T03:53:57;99521.88;;;12.46;100.00
9899;BME280;4988;49.238;6.698;2022-10-17T03:56:24;99507.72;;;12.44;100.00
9899;BME280;4988;49.238;6.698;2022-10-17T03:58:49;99512.50;;;12.37;100.00
9899;BME280;4988;49.238;6.698;2022-10-17T04:01:16;99504.84;;;12.29;100.00
9899;BME280;4988;49.238;6.698;2022-10-17T04:03:42;99510.03;;;12.32;100.00
9899;BME280;4988;49.238;6.698;2022-10-17T04:06:10;99506.78;;;12.26;100.00
9899;BME280;4988;49.238;6.698;2022-10-17T04:08:36;99511.06;;;12.30;100.00
9899;BME280;4988;49.238;6.698;2022-10-17T04:11:05;99518.91;;;12.33;100.00
9899;BME280;4988;49.238;6.698;2022-10-17T04:13:31;99514.66;;;12.29;100.00
9899;BME280;4988;49.238;6.698;2022-10-17T04:16:00;99528.94;;;12.28;100.00
9899;BME280;4988;49.238;6.698;2022-10-17T04:18:28;99521.00;;;12.26;100.00
9899;BME280;4988;49.238;6.698;2022-10-17T04:20:54;99526.63;;;12.20;100.00
9899;BME280;4988;49.238;6.698;2022-10-17T04:23:20;99523.88;;;12.21;100.00
9899;BME280;4988;49.238;6.698;2022-10-17T04:25:45;99525.63;;;12.22;100.00
9899;BME280;4988;49.238;6.698;2022-10-17T04:28:11;99522.97;;;12.22;100.00
9899;BME280;4988;49.238;6.698;2022-10-17T04:30:36;99527.38;;;12.23;100.00
9899;BME280;4988;49.238;6.698;2022-10-17T04:33:02;99532.69;;;12.23;100.00
9899;BME280;4988;49.238;6.698;2022-10-17T04:35:27;99532.69;;;12.23;100.00
9899;BME280;4988;49.238;6.698;2022-10-17T04:37:53;99538.03;;;12.23;100.00
9899;BME280;4988;49.238;6.698;2022-10-17T04:40:19;99536.44;;;12.19;100.00
9899;BME280;4988;49.238;6.698;2022-10-17T04:42:45;99541.72;;;12.21;100.00
9899;BME280;4988;49.238;6.698;2022-10-17T04:45:11;99537.59;;;12.14;100.00
9899;BME280;4988;49.238;6.698;2022-10-17T04:47:36;99541.00;;;12.17;100.00
9899;BME280;4988;49.238;6.698;2022-10-17T04:50:02;99543.78;;;12.14;100.00
9899;BME280;4988;49.238;6.698;2022-10-17T04:52:28;99541.28;;;12.11;100.00
9899;BME280;4988;49.238;6.698;2022-10-17T04:54:53;99542.34;;;12.07;100.00
9899;BME280;4988;49.238;6.698;2022-10-17T04:57:19;99542.22;;;12.10;100.00
9899;BME280;4988;49.238;6.698;2022-10-17T04:59:44;99556.34;;;12.12;100.00
9899;BME280;4988;49.238;6.698;2022-10-17T05:02:10;99547.19;;;11.99;100.00
9899;BME280;4988;49.238;6.698;2022-10-17T05:04:35;99550.09;;;11.93;100.00
9899;BME280;4988;49.238;6.698;2022-10-17T05:07:00;99550.94;;;11.93;100.00
9899;BME280;4988;49.238;6.698;2022-10-17T05:09:26;99549.28;;;11.90;100.00
9899;BME280;4988;49.238;6.698;2022-10-17T05:11:52;99542.84;;;11.95;100.00
9899;BME280;4988;49.238;6.698;2022-10-17T05:14:17;99545.53;;;11.95;100.00
9899;BME280;4988;49.238;6.698;2022-10-17T05:16:42;99546.75;;;11.87;100.00
9899;BME280;4988;49.238;6.698;2022-10-17T05:19:08;99547.63;;;11.88;100.00
9899;BME280;4988;49.238;6.698;2022-10-17T05:21:33;99543.28;;;11.85;100.00
9899;BME280;4988;49.238;6.698;2022-10-17T05:23:59;99547.00;;;11.81;100.00
9899;BME280;4988;49.238;6.698;2022-10-17T05:26:25;99548.75;;;11.82;100.00
9899;BME280;4988;49.238;6.698;2022-10-17T05:28:50;99550.38;;;11.86;100.00
9899;BME280;4988;49.238;6.698;2022-10-17T05:31:17;99550.38;;;11.86;100.00
9899;BME280;4988;49.238;6.698;2022-10-17T05:33:42;99543.28;;;11.85;100.00
9899;BME280;4988;49.238;6.698;2022-10-17T05:36:08;99551.41;;;11.82;100.00
9899;BME280;4988;49.238;6.698;2022-10-17T05:38:34;99552.50;;;11.78;100.00
9899;BME280;4988;49.238;6.698;2022-10-17T05:41:02;99552.50;;;11.78;100.00
9899;BME280;4988;49.238;6.698;2022-10-17T05:43:28;99553.31;;;11.80;100.00
9899;BME280;4988;49.238;6.698;2022-10-17T05:45:54;99558.50;;;11.83;100.00
9899;BME280;4988;49.238;6.698;2022-10-17T05:48:20;99559.31;;;11.85;100.00
9899;BME280;4988;49.238;6.698;2022-10-17T05:50:46;99561.63;;;11.93;100.00
9899;BME280;4988;49.238;6.698;2022-10-17T05:53:12;99561.78;;;11.90;100.00
9899;BME280;4988;49.238;6.698;2022-10-17T05:55:37;99565.22;;;11.92;100.00
9899;BME280;4988;49.238;6.698;2022-10-17T05:58:03;99567.22;;;11.87;100.00
9899;BME280;4988;49.238;6.698;2022-10-17T06:00:28;99566.38;;;11.86;100.00
9899;BME280;4988;49.238;6.698;2022-10-17T06:02:53;99564.75;;;11.82;100.00
9899;BME280;4988;49.238;6.698;2022-10-17T06:05:20;99570.09;;;11.82;100.00
9899;BME280;4988;49.238;6.698;2022-10-17T06:07:45;99572.97;;;11.78;100.00
9899;BME280;4988;49.238;6.698;2022-10-17T06:10:11;99575.69;;;11.76;100.00
9899;BME280;4988;49.238;6.698;2022-10-17T06:12:38;99576.34;;;11.81;100.00
9899;BME280;4988;49.238;6.698;2022-10-17T06:15:03;99577.31;;;11.80;100.00
9899;BME280;4988;49.238;6.698;2022-10-17T06:17:29;99586.81;;;11.86;100.00
9899;BME280;4988;49.238;6.698;2022-10-17T06:19:55;99592.16;;;11.86;100.00
9899;BME280;4988;49.238;6.698;2022-10-17T06:22:21;99594.84;;;11.86;100.00
9899;BME280;4988;49.238;6.698;2022-10-17T06:24:46;99595.56;;;11.89;100.00
9899;BME280;4988;49.238;6.698;2022-10-17T06:27:11;99601.78;;;11.90;100.00
9899;BME280;4988;49.238;6.698;2022-10-17T06:29:37;99612.31;;;11.93;100.00
9899;BME280;4988;49.238;6.698;2022-10-17T06:32:02;99618.41;;;11.97;100.00
9899;BME280;4988;49.238;6.698;2022-10-17T06:34:27;99617.19;;;12.04;100.00
9899;BME280;4988;49.238;6.698;2022-10-17T06:36:53;99620.00;;;12.01;100.00
9899;BME280;4988;49.238;6.698;2022-10-17T06:39:18;99631.47;;;12.03;100.00
9899;BME280;4988;49.238;6.698;2022-10-17T06:41:44;99627.72;;;12.07;100.00
9899;BME280;4988;49.238;6.698;2022-10-17T06:44:10;99636.69;;;12.06;100.00
9899;BME280;4988;49.238;6.698;2022-10-17T06:46:36;99633.06;;;12.07;100.00
9899;BME280;4988;49.238;6.698;2022-10-17T06:49:02;99639.00;;;12.14;100.00
9899;BME280;4988;49.238;6.698;2022-10-17T06:51:29;99638.94;;;12.15;100.00
9899;BME280;4988;49.238;6.698;2022-10-17T06:53:56;99645.09;;;12.17;100.00
9899;BME280;4988;49.238;6.698;2022-10-17T06:56:22;99648.41;;;12.22;100.00
9899;BME280;4988;49.238;6.698;2022-10-17T06:58:47;99646.53;;;12.25;100.00
9899;BME280;4988;49.238;6.698;2022-10-17T07:01:14;99650.00;;;12.27;100.00
9899;BME280;4988;49.238;6.698;2022-10-17T07:03:40;99650.69;;;12.32;100.00
9899;BME280;4988;49.238;6.698;2022-10-17T07:06:06;99653.91;;;12.38;100.00
9899;BME280;4988;49.238;6.698;2022-10-17T07:08:31;99660.81;;;12.44;100.00
9899;BME280;4988;49.238;6.698;2022-10-17T07:10:57;99664.19;;;12.48;100.00
9899;BME280;4988;49.238;6.698;2022-10-17T07:13:22;99664.78;;;12.54;100.00
9899;BME280;4988;49.238;6.698;2022-10-17T07:15:48;99664.69;;;12.56;100.00
9899;BME280;4988;49.238;6.698;2022-10-17T07:18:14;99668.16;;;12.58;100.00
9899;BME280;4988;49.238;6.698;2022-10-17T07:20:39;99666.22;;;12.62;100.00
9899;BME280;4988;49.238;6.698;2022-10-17T07:23:05;99671.13;;;12.71;100.00
9899;BME280;4988;49.238;6.698;2022-10-17T07:25:31;99679.94;;;12.73;100.00
9899;BME280;4988;49.238;6.698;2022-10-17T07:27:56;99681.09;;;12.86;100.00
9899;BME280;4988;49.238;6.698;2022-10-17T07:30:22;99685.31;;;12.92;100.00
9899;BME280;4988;49.238;6.698;2022-10-17T07:32:47;99691.31;;;12.97;100.00
9899;BME280;4988;49.238;6.698;2022-10-17T07:35:13;99690.94;;;13.05;100.00
9899;BME280;4988;49.238;6.698;2022-10-17T07:37:39;99695.19;;;13.09;100.00
9899;BME280;4988;49.238;6.698;2022-10-17T07:40:05;99699.38;;;13.15;100.00
9899;BME280;4988;49.238;6.698;2022-10-17T07:42:37;99706.25;;;13.21;100.00
9899;BME280;4988;49.238;6.698;2022-10-17T07:45:05;99699.44;;;13.32;100.00
9899;BME280;4988;49.238;6.698;2022-10-17T07:47:30;99707.13;;;13.40;100.00
9899;BME280;4988;49.238;6.698;2022-10-17T07:49:59;99706.53;;;13.53;100.00
9899;BME280;4988;49.238;6.698;2022-10-17T07:52:24;99716.66;;;13.63;100.00
9899;BME280;4988;49.238;6.698;2022-10-17T07:54:50;99722.78;;;13.85;100.00
9899;BME280;4988;49.238;6.698;2022-10-17T07:57:15;99725.69;;;14.15;100.00
9899;BME280;4988;49.238;6.698;2022-10-17T07:59:40;99717.72;;;14.31;100.00
9899;BME280;4988;49.238;6.698;2022-10-17T08:02:09;99723.22;;;14.45;100.00
9899;BME280;4988;49.238;6.698;2022-10-17T08:04:42;99716.88;;;14.64;100.00
9899;BME280;4988;49.238;6.698;2022-10-17T08:07:07;99716.88;;;14.82;100.00
9899;BME280;4988;49.238;6.698;2022-10-17T08:09:32;99713.47;;;14.95;100.00
9899;BME280;4988;49.238;6.698;2022-10-17T08:11:57;99721.53;;;15.11;100.00
9899;BME280;4988;49.238;6.698;2022-10-17T08:14:23;99719.78;;;15.26;100.00
9899;BME280;4988;49.238;6.698;2022-10-17T08:16:48;99715.38;;;15.41;100.00
9899;BME280;4988;49.238;6.698;2022-10-17T08:19:13;99712.75;;;15.56;100.00
9899;BME280;4988;49.238;6.698;2022-10-17T08:21:39;99712.31;;;15.64;100.00
9899;BME280;4988;49.238;6.698;2022-10-17T08:24:05;99712.44;;;15.76;100.00
9899;BME280;4988;49.238;6.698;2022-10-17T08:26:30;99700.84;;;15.92;100.00
9899;BME280;4988;49.238;6.698;2022-10-17T08:28:56;99698.03;;;16.10;100.00
9899;BME280;4988;49.238;6.698;2022-10-17T08:31:22;99701.06;;;16.34;100.00
9899;BME280;4988;49.238;6.698;2022-10-17T08:33:48;99698.28;;;16.50;100.00
9899;BME280;4988;49.238;6.698;2022-10-17T08:36:17;99701.16;;;16.61;100.00
9899;BME280;4988;49.238;6.698;2022-10-17T08:38:43;99702.31;;;16.71;100.00
9899;BME280;4988;49.238;6.698;2022-10-17T08:46:42;99708.28;;;17.06;100.00
9899;BME280;4988;49.238;6.698;2022-10-17T08:49:27;99712.03;;;17.17;100.00
9899;BME280;4988;49.238;6.698;2022-10-17T08:52:05;99722.94;;;17.29;100.00
9899;BME280;4988;49.238;6.698;2022-10-17T08:54:41;99719.06;;;17.47;100.00
9899;BME280;4988;49.238;6.698;2022-10-17T08:57:14;99726.44;;;17.58;100.00
9899;BME280;4988;49.238;6.698;2022-10-17T08:59:41;99722.81;;;17.72;100.00
9899;BME280;4988;49.238;6.698;2022-10-17T09:02:34;99725.22;;;17.77;100.00
9899;BME280;4988;49.238;6.698;2022-10-17T09:05:25;99728.25;;;17.85;100.00
9899;BME280;4988;49.238;6.698;2022-10-17T09:08:02;99734.59;;;17.98;100.00
9899;BME280;4988;49.238;6.698;2022-10-17T09:17:02;99734.41;;;18.27;100.00
9899;BME280;4988;49.238;6.698;2022-10-17T09:19:35;99739.94;;;18.39;100.00
9899;BME280;4988;49.238;6.698;2022-10-17T09:22:08;99740.69;;;18.41;100.00
9899;BME280;4988;49.238;6.698;2022-10-17T09:24:46;99749.13;;;18.49;98.29
9899;BME280;4988;49.238;6.698;2022-10-17T09:27:25;99750.63;;;18.53;98.89
9899;BME280;4988;49.238;6.698;2022-10-17T09:32:43;99749.78;;;18.65;98.46
9899;BME280;4988;49.238;6.698;2022-10-17T09:35:13;99751.06;;;18.73;96.98
9899;BME280;4988;49.238;6.698;2022-10-17T09:37:39;99758.41;;;18.84;98.06
9899;BME280;4988;49.238;6.698;2022-10-17T09:40:07;99758.75;;;18.92;95.20
9899;BME280;4988;49.238;6.698;2022-10-17T09:42:36;99767.69;;;19.05;95.61
9899;BME280;4988;49.238;6.698;2022-10-17T09:47:41;99764.75;;;19.21;95.08
9899;BME280;4988;49.238;6.698;2022-10-17T09:50:29;99766.16;;;19.27;91.89
9899;BME280;4988;49.238;6.698;2022-10-17T09:52:56;99769.78;;;19.39;91.45
9899;BME280;4988;49.238;6.698;2022-10-17T09:55:42;99774.78;;;19.45;90.74
9899;BME280;4988;49.238;6.698;2022-10-17T09:58:09;99777.53;;;19.56;91.28
9899;BME280;4988;49.238;6.698;2022-10-17T10:00:41;99780.31;;;19.68;91.50
9899;BME280;4988;49.238;6.698;2022-10-17T10:03:18;99771.41;;;19.79;89.26
9899;BME280;4988;49.238;6.698;2022-10-17T10:06:05;99781.66;;;19.86;89.22
9899;BME280;4988;49.238;6.698;2022-10-17T10:08:33;99781.09;;;19.94;88.65
9899;BME280;4988;49.238;6.698;2022-10-17T10:11:07;99784.53;;;19.96;87.95
9899;BME280;4988;49.238;6.698;2022-10-17T10:13:33;99793.28;;;20.00;87.25
9899;BME280;4988;49.238;6.698;2022-10-17T10:18:44;99800.09;;;20.05;87.73
9899;BME280;4988;49.238;6.698;2022-10-17T10:21:24;99797.97;;;20.09;87.09
9899;BME280;4988;49.238;6.698;2022-10-17T10:26:42;99796.53;;;20.16;86.91
9899;BME280;4988;49.238;6.698;2022-10-17T10:31:48;99802.25;;;20.24;86.93
9899;BME280;4988;49.238;6.698;2022-10-17T10:39:27;99814.22;;;20.45;86.45
9899;BME280;4988;49.238;6.698;2022-10-17T10:41:54;99807.94;;;20.33;85.25
9899;BME280;4988;49.238;6.698;2022-10-17T10:44:23;99815.75;;;20.24;86.51
9899;BME280;4988;49.238;6.698;2022-10-17T10:47:15;99823.56;;;20.16;87.18
9899;BME280;4988;49.238;6.698;2022-10-17T10:49:41;99825.91;;;20.09;87.56
9899;BME280;4988;49.238;6.698;2022-10-17T10:52:11;99827.00;;;20.07;88.37
9899;BME280;4988;49.238;6.698;2022-10-17T10:54:48;99828.41;;;20.00;87.17
9899;BME280;4988;49.238;6.698;2022-10-17T10:57:20;99828.41;;;20.00;87.87
9899;BME280;4988;49.238;6.698;2022-10-17T11:00:25;99824.50;;;20.04;90.09
9899;BME280;4988;49.238;6.698;2022-10-17T11:05:34;99828.97;;;20.16;89.44
9899;BME280;4988;49.238;6.698;2022-10-17T11:08:14;99814.03;;;20.23;88.21
9899;BME280;4988;49.238;6.698;2022-10-17T11:11:12;99822.03;;;20.25;88.74
9899;BME280;4988;49.238;6.698;2022-10-17T11:14:03;99821.69;;;20.30;87.92
9899;BME280;4988;49.238;6.698;2022-10-17T11:16:51;99810.81;;;20.43;88.09
9899;BME280;4988;49.238;6.698;2022-10-17T11:19:24;99817.34;;;20.51;86.56
9899;BME280;4988;49.238;6.698;2022-10-17T11:22:06;99814.44;;;20.66;86.27
9899;BME280;4988;49.238;6.698;2022-10-17T11:27:14;99820.69;;;20.91;84.88
9899;BME280;4988;49.238;6.698;2022-10-17T11:29:40;99822.38;;;20.92;83.68
9899;BME280;4988;49.238;6.698;2022-10-17T11:32:12;99814.25;;;20.92;84.32
9899;BME280;4988;49.238;6.698;2022-10-17T11:34:45;99818.09;;;21.00;85.59
9899;BME280;4988;49.238;6.698;2022-10-17T11:37:16;99817.38;;;21.10;83.78
9899;BME280;4988;49.238;6.698;2022-10-17T11:40:35;99828.31;;;21.19;84.07
9899;BME280;4988;49.238;6.698;2022-10-17T11:42:58;99825.75;;;21.18;83.77
9899;BME280;4988;49.238;6.698;2022-10-17T11:45:27;99822.69;;;21.23;84.85
9899;BME280;4988;49.238;6.698;2022-10-17T11:48:40;99827.13;;;21.35;84.35
9899;BME280;4988;49.238;6.698;2022-10-17T11:51:09;99823.44;;;21.36;82.77
9899;BME280;4988;49.238;6.698;2022-10-17T11:53:47;99830.53;;;21.37;81.89
9899;BME280;4988;49.238;6.698;2022-10-17T11:56:17;99826.72;;;21.40;83.31
9899;BME280;4988;49.238;6.698;2022-10-17T12:01:51;99819.97;;;21.57;82.80
9899;BME280;4988;49.238;6.698;2022-10-17T12:04:47;99814.66;;;21.66;82.22
9899;BME280;4988;49.238;6.698;2022-10-17T12:07:25;99816.03;;;21.72;83.19
9899;BME280;4988;49.238;6.698;2022-10-17T12:10:13;99819.69;;;21.82;81.96
9899;BME280;4988;49.238;6.698;2022-10-17T12:12:40;99817.59;;;21.86;82.17
9899;BME280;4988;49.238;6.698;2022-10-17T12:17:44;99827.97;;;21.81;81.42
9899;BME280;4988;49.238;6.698;2022-10-17T12:22:48;99820.66;;;21.93;81.76
9899;BME280;4988;49.238;6.698;2022-10-17T12:26:16;99838.66;;;21.82;82.38
9899;BME280;4988;49.238;6.698;2022-10-17T12:31:09;99827.63;;;21.74;81.63
9899;BME280;4988;49.238;6.698;2022-10-17T12:33:57;99837.56;;;21.74;80.38
9899;BME280;4988;49.238;6.698;2022-10-17T12:49:41;99823.75;;;21.88;83.85
9899;BME280;4988;49.238;6.698;2022-10-17T12:59:49;99821.28;;;22.29;78.61
9899;BME280;4988;49.238;6.698;2022-10-17T13:02:19;99823.13;;;22.40;78.09
9899;BME280;4988;49.238;6.698;2022-10-17T13:04:47;99817.78;;;22.49;77.12
9899;BME280;4988;49.238;6.698;2022-10-17T13:07:22;99823.81;;;22.53;77.64
9899;BME280;4988;49.238;6.698;2022-10-17T13:09:48;99824.06;;;22.50;77.68
9899;BME280;4988;49.238;6.698;2022-10-17T13:12:22;99814.09;;;22.39;78.29
9899;BME280;4988;49.238;6.698;2022-10-17T13:14:50;99813.00;;;22.30;78.67
9899;BME280;4988;49.238;6.698;2022-10-17T13:17:28;99823.91;;;22.19;80.36
9899;BME280;4988;49.238;6.698;2022-10-17T13:19:55;99819.38;;;22.08;79.78
9899;BME280;4988;49.238;6.698;2022-10-17T13:22:27;99819.16;;;22.00;80.00
9899;BME280;4988;49.238;6.698;2022-10-17T13:25:06;99816.44;;;22.00;81.29
9899;BME280;4988;49.238;6.698;2022-10-17T13:27:33;99814.97;;;21.96;80.54
9899;BME280;4988;49.238;6.698;2022-10-17T13:30:01;99824.19;;;22.05;80.63
9899;BME280;4988;49.238;6.698;2022-10-17T13:32:36;99817.13;;;22.13;80.40
9899;BME280;4988;49.238;6.698;2022-10-17T13:35:11;99815.16;;;22.15;78.22
9899;BME280;4988;49.238;6.698;2022-10-17T13:37:43;99816.09;;;22.26;78.50
9899;BME280;4988;49.238;6.698;2022-10-17T13:40:21;99816.97;;;22.38;80.45
9899;BME280;4988;49.238;6.698;2022-10-17T13:42:47;99821.25;;;22.40;80.32
9899;BME280;4988;49.238;6.698;2022-10-17T13:45:29;99824.06;;;22.50;78.58
9899;BME280;4988;49.238;6.698;2022-10-17T13:47:56;99827.50;;;22.52;78.70
9899;BME280;4988;49.238;6.698;2022-10-17T13:50:27;99832.06;;;22.52;78.84
9899;BME280;4988;49.238;6.698;2022-10-17T13:53:50;99829.94;;;22.55;79.46
9899;BME280;4988;49.238;6.698;2022-10-17T13:55:53;99833.19;;;22.49;76.67
9899;BME280;4988;49.238;6.698;2022-10-17T13:58:19;99824.72;;;22.42;78.23
9899;BME280;4988;49.238;6.698;2022-10-17T14:00:45;99829.53;;;22.39;78.85
9899;BME280;4988;49.238;6.698;2022-10-17T14:03:13;99826.94;;;22.37;78.28
9899;BME280;4988;49.238;6.698;2022-10-17T14:06:14;99834.19;;;22.37;78.53
9899;BME280;4988;49.238;6.698;2022-10-17T14:09:02;99822.72;;;22.33;77.87
9899;BME280;4988;49.238;6.698;2022-10-17T14:11:31;99826.72;;;22.29;77.73
9899;BME280;4988;49.238;6.698;2022-10-17T14:13:58;99830.41;;;22.28;77.01
9899;BME280;4988;49.238;6.698;2022-10-17T14:16:26;99823.53;;;22.24;79.64
9899;BME280;4988;49.238;6.698;2022-10-17T14:18:57;99829.94;;;22.23;80.78
9899;BME280;4988;49.238;6.698;2022-10-17T14:21:25;99827.38;;;22.21;79.06
9899;BME280;4988;49.238;6.698;2022-10-17T14:24:15;;;;22.19;
9899;BME280;4988;49.238;6.698;2022-10-17T14:26:52;99827.00;;;22.14;78.71
9899;BME280;4988;49.238;6.698;2022-10-17T14:29:31;99835.50;;;22.10;79.76
9899;BME280;4988;49.238;6.698;2022-10-17T14:32:03;99831.72;;;22.01;80.44
9899;BME280;4988;49.238;6.698;2022-10-17T14:34:32;99829.41;;;21.96;81.12
9899;BME280;4988;49.238;6.698;2022-10-17T14:36:59;99830.63;;;21.92;82.23
9899;BME280;4988;49.238;6.698;2022-10-17T14:39:25;99832.03;;;21.87;82.93
9899;BME280;4988;49.238;6.698;2022-10-17T14:41:51;99829.56;;;21.83;83.58
9899;BME280;4988;49.238;6.698;2022-10-17T14:44:28;99828.09;;;21.79;84.63
9899;BME280;4988;49.238;6.698;2022-10-17T14:46:59;99829.31;;;21.75;85.93
9899;BME280;4988;49.238;6.698;2022-10-17T14:49:35;99830.69;;;21.69;86.76
9899;BME280;4988;49.238;6.698;2022-10-17T14:54:43;99843.16;;;21.61;87.59
9899;BME280;4988;49.238;6.698;2022-10-17T14:57:16;99839.41;;;21.50;86.64
9899;BME280;4988;49.238;6.698;2022-10-17T14:59:42;99852.94;;;21.50;86.58
9899;BME280;4988;49.238;6.698;2022-10-17T15:02:08;99853.94;;;21.49;87.68
9899;BME280;4988;49.238;6.698;2022-10-17T15:04:33;99848.78;;;21.46;88.50
9899;BME280;4988;49.238;6.698;2022-10-17T15:06:58;99867.13;;;21.43;89.04
9899;BME280;4988;49.238;6.698;2022-10-17T15:09:24;99876.34;;;21.29;90.16